ěÝzenÝ letovÚho provozu ╚eskÚ republiky
Letiste: LKTB Aktualizace: 26.09.2022 15:15:32  UTC
 METAR LKTB 26.09. 15:00 RRA
METAR LKTB 261500Z VRB02KT 9999 FEW040 17/08 Q1005 NOSIG=
 TAF LKTB 26.09. 11:00 ...
TAF LKTB 261100Z 2612/2718 33007KT 9999 BKN035      TEMPO 2612/2616 23012KT 8000 SHRA SCT025TCU      PROB30 TEMPO 2612/2615 6000 TSRA SCT020CB      BECMG 2618/2620 21003KT CAVOK      BECMG 2703/2705 3500 BR NSC      TEMPO 2705/2709 1500 BR BKN003      BECMG 2709/2711 6000 BKN016      TEMPO 2711/2718 4000 RA BKN005=